createdAt,value
2023-05-18T00:00:14.904Z,95485.03
2023-05-18T00:03:24.104Z,95486.84
2023-05-18T00:06:32.377Z,95471.03
2023-05-18T00:09:42.712Z,95473.00
2023-05-18T00:12:51.352Z,95470.16
2023-05-18T00:16:00.132Z,95462.53
2023-05-18T00:19:08.959Z,95458.44
2023-05-18T00:22:18.824Z,95459.38
2023-05-18T00:25:29.283Z,95458.16
2023-05-18T00:28:37.994Z,95466.03
2023-05-18T00:31:46.585Z,95467.50
2023-05-18T00:34:55.038Z,95467.16
2023-05-18T00:38:04.794Z,95460.00
2023-05-18T00:41:14.485Z,95461.44
2023-05-18T00:44:23.597Z,95459.81
2023-05-18T00:47:32.545Z,95463.19
2023-05-18T00:50:41.977Z,95463.19
2023-05-18T00:53:51.647Z,95458.09
2023-05-18T00:57:02.408Z,95452.81
2023-05-18T01:00:13.984Z,95462.47
2023-05-18T01:03:22.951Z,95454.19
2023-05-18T01:06:36.166Z,95454.22
2023-05-18T01:09:45.117Z,95457.91
2023-05-18T01:13:04.426Z,95450.44
2023-05-18T01:16:24.178Z,95445.50
2023-05-18T01:20:17.172Z,95447.94
2023-05-18T01:24:04.812Z,95451.59
2023-05-18T01:27:19.330Z,95449.59
2023-05-18T01:30:28.420Z,95449.47
2023-05-18T01:33:37.016Z,95441.69
2023-05-18T01:36:45.586Z,95442.53
2023-05-18T01:39:54.408Z,95451.28
2023-05-18T01:43:12.760Z,95442.09
2023-05-18T01:46:36.728Z,95431.25
2023-05-18T01:49:51.933Z,95436.31
2023-05-18T01:53:09.788Z,95435.03
2023-05-18T01:56:20.818Z,95432.16
2023-05-18T01:59:31.597Z,95429.25
2023-05-18T02:02:40.084Z,95423.63
2023-05-18T02:05:48.314Z,95429.34
2023-05-18T02:08:56.913Z,95426.88
2023-05-18T02:12:06.195Z,95423.44
2023-05-18T02:15:16.145Z,95428.28
2023-05-18T02:18:26.864Z,95423.94
2023-05-18T02:21:35.981Z,95421.53
2023-05-18T02:24:46.213Z,95421.50
2023-05-18T02:27:57.005Z,95424.31
2023-05-18T02:31:16.582Z,95421.53
2023-05-18T02:34:25.004Z,95423.81
2023-05-18T02:37:34.336Z,95413.88
2023-05-18T02:40:42.561Z,95421.75
2023-05-18T02:43:50.821Z,95418.97
2023-05-18T02:47:02.309Z,95410.56
2023-05-18T02:50:11.709Z,95409.59
2023-05-18T02:53:21.037Z,95403.97
2023-05-18T02:56:33.254Z,95401.38
2023-05-18T03:00:10.227Z,95403.16
2023-05-18T03:03:20.339Z,95402.53
2023-05-18T03:06:30.397Z,95401.84
2023-05-18T03:09:39.097Z,95397.72
2023-05-18T03:12:47.967Z,95395.09
2023-05-18T03:15:56.656Z,95400.63
2023-05-18T03:19:06.451Z,95392.22
2023-05-18T03:22:18.621Z,95395.31
2023-05-18T03:25:27.115Z,95405.84
2023-05-18T03:28:35.669Z,95409.22
2023-05-18T03:31:45.441Z,95406.66
2023-05-18T03:34:57.475Z,95402.97
2023-05-18T03:38:05.976Z,95409.19
2023-05-18T03:41:14.734Z,95406.63
2023-05-18T03:44:24.325Z,95410.78
2023-05-18T03:47:33.029Z,95405.75
2023-05-18T03:50:43.222Z,95417.38
2023-05-18T03:53:52.560Z,95419.94
2023-05-18T03:57:02.381Z,95414.13
2023-05-18T04:00:13.574Z,95413.44
2023-05-18T04:03:28.012Z,95412.34
2023-05-18T04:06:37.850Z,95415.19
2023-05-18T04:09:46.568Z,95411.34
2023-05-18T04:12:54.938Z,95421.19
2023-05-18T04:16:06.554Z,95421.81
2023-05-18T04:19:15.985Z,95414.75
2023-05-18T04:22:29.946Z,95417.88
2023-05-18T04:25:39.488Z,95417.78
2023-05-18T04:28:51.921Z,95425.31
2023-05-18T04:32:01.195Z,95422.06
2023-05-18T04:35:11.926Z,95420.13
2023-05-18T04:38:23.715Z,95419.22
2023-05-18T04:41:34.217Z,95417.47
2023-05-18T04:44:42.711Z,95422.31
2023-05-18T04:47:54.134Z,95420.34
2023-05-18T04:51:06.224Z,95418.41
2023-05-18T04:54:16.221Z,95430.97
2023-05-18T04:57:24.685Z,95426.66
2023-05-18T05:00:33.388Z,95426.00
2023-05-18T05:03:41.715Z,95425.50
2023-05-18T05:06:53.568Z,95430.09
2023-05-18T05:10:03.541Z,95434.53
2023-05-18T05:13:12.289Z,95428.72
2023-05-18T05:16:20.799Z,95428.50
2023-05-18T05:19:29.563Z,95434.09
2023-05-18T05:22:38.273Z,95429.09
2023-05-18T05:25:51.140Z,95426.09
2023-05-18T05:28:59.406Z,95435.00
2023-05-18T05:32:09.315Z,95436.34
2023-05-18T05:35:18.519Z,95429.34
2023-05-18T05:38:28.122Z,95433.25
2023-05-18T05:41:41.280Z,95427.38
2023-05-18T05:44:49.748Z,95431.78
2023-05-18T05:47:58.466Z,95428.19
2023-05-18T05:51:07.012Z,95418.63
2023-05-18T05:54:16.204Z,95425.72
2023-05-18T05:57:27.349Z,95417.28
2023-05-18T06:00:36.320Z,95418.69
2023-05-18T06:03:46.870Z,95426.50
2023-05-18T06:06:55.331Z,95429.31
2023-05-18T06:10:04.948Z,95428.84
2023-05-18T06:13:16.385Z,95425.41
2023-05-18T06:16:31.168Z,95429.50
2023-05-18T06:19:41.731Z,95430.78
2023-05-18T06:22:50.672Z,95425.25
2023-05-18T06:26:13.816Z,95419.00
2023-05-18T06:29:38.895Z,95427.41
2023-05-18T06:33:07.445Z,95426.59
2023-05-18T06:36:17.277Z,95440.41
2023-05-18T06:39:26.266Z,95429.22
2023-05-18T06:42:35.276Z,95429.88
2023-05-18T06:46:03.680Z,95431.38
2023-05-18T06:49:17.146Z,95424.16
2023-05-18T06:52:27.178Z,95420.19
2023-05-18T06:55:37.877Z,95419.81
2023-05-18T06:58:46.671Z,95425.59
2023-05-18T07:01:57.789Z,95417.53
2023-05-18T07:05:09.366Z,95422.09
2023-05-18T07:08:18.010Z,95426.78
2023-05-18T07:11:29.369Z,95426.63
2023-05-18T07:14:37.984Z,95426.50
2023-05-18T07:17:47.876Z,95437.03
2023-05-18T07:20:57.609Z,95428.31
2023-05-18T07:24:06.703Z,95427.13
2023-05-18T07:27:15.048Z,95421.28
2023-05-18T07:30:27.287Z,95428.13
2023-05-18T07:33:38.510Z,95433.00
2023-05-18T07:36:48.270Z,95427.34
2023-05-18T07:39:56.932Z,95430.94
2023-05-18T07:43:05.387Z,95431.56
2023-05-18T07:46:13.871Z,95435.97
2023-05-18T07:49:25.255Z,95433.28
2023-05-18T07:52:33.745Z,95430.88
2023-05-18T07:55:43.331Z,95443.69
2023-05-18T07:58:51.836Z,95430.75
2023-05-18T08:02:01.995Z,95428.03
2023-05-18T08:05:15.418Z,95430.72
2023-05-18T08:08:38.044Z,95426.06
2023-05-18T08:11:46.975Z,95449.06
2023-05-18T08:15:13.158Z,95442.38
2023-05-18T08:18:22.526Z,95445.53
2023-05-18T08:21:33.231Z,95446.53
2023-05-18T08:24:41.950Z,95451.66
2023-05-18T08:27:51.857Z,95446.00
2023-05-18T08:31:02.549Z,95436.50
2023-05-18T08:34:10.987Z,95447.34
2023-05-18T08:37:22.056Z,95434.97
2023-05-18T08:40:55.361Z,95438.91
2023-05-18T08:44:10.714Z,95439.97
2023-05-18T08:47:42.087Z,95447.56
2023-05-18T08:51:05.665Z,95435.25
2023-05-18T08:54:23.106Z,95436.31
2023-05-18T08:57:35.989Z,95437.94
2023-05-18T09:00:44.784Z,95434.22
2023-05-18T09:03:53.560Z,95430.03
2023-05-18T09:07:05.284Z,95430.25
2023-05-18T09:10:16.515Z,95426.38
2023-05-18T09:13:25.188Z,95433.41
2023-05-18T09:16:35.706Z,95445.09
2023-05-18T09:19:44.753Z,95436.78
2023-05-18T09:22:54.019Z,95436.03
2023-05-18T09:26:06.007Z,95445.94
2023-05-18T09:29:19.255Z,95440.53
2023-05-18T09:32:28.495Z,95443.25
2023-05-18T09:35:39.857Z,95436.72
2023-05-18T09:38:48.486Z,95445.69
2023-05-18T09:41:58.653Z,95444.66
2023-05-18T09:45:19.142Z,95441.53
2023-05-18T09:48:29.183Z,95443.97
2023-05-18T09:51:41.351Z,95440.41
2023-05-18T09:55:00.994Z,95438.31
2023-05-18T09:58:11.819Z,95442.44
2023-05-18T10:01:21.212Z,95437.88
2023-05-18T10:04:41.581Z,95437.09
2023-05-18T10:07:52.671Z,95438.97
2023-05-18T10:11:03.187Z,95443.03
2023-05-18T10:14:14.440Z,95448.53
2023-05-18T10:17:26.245Z,95446.28
2023-05-18T10:20:36.536Z,95456.97
2023-05-18T10:23:51.206Z,95459.94
2023-05-18T10:27:09.864Z,95446.72
2023-05-18T10:30:22.096Z,95460.00
2023-05-18T10:33:32.989Z,95455.63
2023-05-18T10:36:42.801Z,95448.44
2023-05-18T10:39:55.968Z,95437.09
2023-05-18T10:43:07.376Z,95436.63
2023-05-18T10:46:18.570Z,95440.19
2023-05-18T10:49:28.579Z,95441.00
2023-05-18T10:52:39.182Z,95442.88
2023-05-18T10:55:48.926Z,95452.97
2023-05-18T10:58:58.257Z,95441.41
2023-05-18T11:02:12.242Z,95437.25
2023-05-18T11:05:26.316Z,95433.72
2023-05-18T11:08:36.113Z,95439.34
2023-05-18T11:11:55.971Z,95447.78
2023-05-18T11:15:05.380Z,95447.41
2023-05-18T11:18:18.640Z,95442.66
2023-05-18T11:21:53.471Z,95437.09
2023-05-18T11:25:05.626Z,95442.25
2023-05-18T11:28:15.423Z,95445.94
2023-05-18T11:31:47.678Z,95446.53
2023-05-18T11:34:58.457Z,95445.94
2023-05-18T11:38:10.087Z,95444.03
2023-05-18T11:41:36.435Z,95450.22
2023-05-18T11:44:54.319Z,95439.97
2023-05-18T11:48:04.313Z,95447.81
2023-05-18T11:51:14.802Z,95443.06
2023-05-18T11:54:27.328Z,95444.66
2023-05-18T11:57:42.453Z,95444.69
2023-05-18T12:00:53.221Z,95435.38
2023-05-18T12:04:02.455Z,95436.47
2023-05-18T12:07:13.761Z,95431.91
2023-05-18T12:10:26.516Z,95447.81
2023-05-18T12:13:38.223Z,95436.09
2023-05-18T12:16:48.750Z,95435.78
2023-05-18T12:19:57.717Z,95424.97
2023-05-18T12:23:07.535Z,95419.63
2023-05-18T12:26:19.655Z,95431.66
2023-05-18T12:29:27.929Z,95422.50
2023-05-18T12:32:36.308Z,95420.66
2023-05-18T12:35:44.796Z,95417.72
2023-05-18T12:38:55.379Z,95423.13
2023-05-18T12:42:12.072Z,95430.50
2023-05-18T12:45:21.271Z,95419.88
2023-05-18T12:48:30.913Z,95426.31
2023-05-18T12:51:40.928Z,95428.84
2023-05-18T12:54:58.609Z,95424.44
2023-05-18T12:58:14.671Z,95417.56
2023-05-18T13:01:25.048Z,95422.66
2023-05-18T13:04:37.117Z,95417.81
2023-05-18T13:07:46.893Z,95416.47
2023-05-18T13:11:12.851Z,95422.88
2023-05-18T13:14:23.548Z,95411.50
2023-05-18T13:17:32.624Z,95412.63
2023-05-18T13:20:45.104Z,95405.19
2023-05-18T13:23:54.428Z,95410.31
2023-05-18T13:27:04.247Z,95404.50
2023-05-18T13:30:14.833Z,95406.38
2023-05-18T13:33:25.356Z,95401.16
2023-05-18T13:36:36.307Z,95409.53
2023-05-18T13:39:45.345Z,95399.88
2023-05-18T13:42:55.359Z,95400.50
2023-05-18T13:46:05.190Z,95398.03
2023-05-18T13:49:14.333Z,95395.56
2023-05-18T13:52:22.672Z,95394.75
2023-05-18T13:55:33.812Z,95389.38
2023-05-18T13:58:45.486Z,95391.44
2023-05-18T14:01:55.522Z,95381.53
2023-05-18T14:05:29.339Z,95381.59
2023-05-18T14:08:38.660Z,95377.25
2023-05-18T14:11:47.684Z,95377.03
2023-05-18T14:15:00.358Z,95363.47
2023-05-18T14:18:08.821Z,95376.44
2023-05-18T14:21:17.774Z,95371.09
2023-05-18T14:24:26.160Z,95375.16
2023-05-18T14:27:34.698Z,95365.94
2023-05-18T14:30:44.651Z,95368.41
2023-05-18T14:33:53.356Z,95365.09
2023-05-18T14:37:02.164Z,95370.00
2023-05-18T14:40:11.996Z,95359.31
2023-05-18T14:43:20.852Z,95359.94
2023-05-18T14:46:31.355Z,95355.66
2023-05-18T14:49:39.966Z,95352.75
2023-05-18T14:52:48.960Z,95372.94
2023-05-18T14:55:57.696Z,95368.81
2023-05-18T14:59:06.151Z,95361.00
2023-05-18T15:02:16.145Z,95360.56
2023-05-18T15:05:24.496Z,95362.25
2023-05-18T15:08:34.092Z,95358.13
2023-05-18T15:11:42.829Z,95359.75
2023-05-18T15:14:51.332Z,95367.13
2023-05-18T15:18:01.135Z,95369.59
2023-05-18T15:21:09.644Z,95364.25
2023-05-18T15:24:18.744Z,95366.91
2023-05-18T15:27:28.734Z,95362.16
2023-05-18T15:30:38.559Z,95364.63
2023-05-18T15:33:49.463Z,95365.47
2023-05-18T15:36:58.198Z,95370.88
2023-05-18T15:40:08.211Z,95372.09
2023-05-18T15:43:16.787Z,95367.56
2023-05-18T15:46:26.028Z,95370.22
2023-05-18T15:49:36.891Z,95373.53
2023-05-18T15:52:45.396Z,95369.22
2023-05-18T15:55:58.629Z,95371.69
2023-05-18T15:59:08.632Z,95374.75
2023-05-18T16:02:18.573Z,95372.91
2023-05-18T16:05:28.383Z,95368.38
2023-05-18T16:08:37.142Z,95367.56
2023-05-18T16:11:45.538Z,95363.44
2023-05-18T16:14:54.469Z,95370.38
2023-05-18T16:18:03.586Z,95364.41
2023-05-18T16:21:13.895Z,95366.03
2023-05-18T16:24:22.641Z,95369.50
2023-05-18T16:27:31.306Z,95368.25
2023-05-18T16:30:40.310Z,95376.03
2023-05-18T16:33:48.863Z,95375.59
2023-05-18T16:36:58.862Z,95382.09
2023-05-18T16:40:08.892Z,95378.78
2023-05-18T16:43:17.517Z,95381.25
2023-05-18T16:46:26.432Z,95378.38
2023-05-18T16:49:41.902Z,95380.00
2023-05-18T16:52:51.807Z,95382.88
2023-05-18T16:56:00.702Z,95383.91
2023-05-18T16:59:09.429Z,95393.50
2023-05-18T17:02:18.403Z,95397.56
2023-05-18T17:05:30.679Z,95402.97
2023-05-18T17:08:40.798Z,95396.81
2023-05-18T17:11:49.664Z,95395.56
2023-05-18T17:14:58.543Z,95400.81
2023-05-18T17:18:07.759Z,95403.69
2023-05-18T17:21:16.175Z,95401.44
2023-05-18T17:24:26.862Z,95406.59
2023-05-18T17:27:35.877Z,95397.72
2023-05-18T17:30:44.243Z,95393.41
2023-05-18T17:33:54.636Z,95394.88
2023-05-18T17:37:03.396Z,95397.88
2023-05-18T17:40:18.304Z,95403.00
2023-05-18T17:43:26.780Z,95398.25
2023-05-18T17:46:35.531Z,95403.59
2023-05-18T17:49:44.348Z,95406.91
2023-05-18T17:52:53.006Z,95405.25
2023-05-18T17:56:03.362Z,95399.84
2023-05-18T17:59:12.098Z,95403.94
2023-05-18T18:02:21.041Z,95398.69
2023-05-18T18:05:31.829Z,95401.09
2023-05-18T18:08:43.098Z,95401.28
2023-05-18T18:11:53.117Z,95406.38
2023-05-18T18:15:01.312Z,95410.66
2023-05-18T18:18:09.691Z,95409.00
2023-05-18T18:21:18.216Z,95407.56
2023-05-18T18:24:26.520Z,95402.34
2023-05-18T18:27:36.104Z,95408.50
2023-05-18T18:30:44.997Z,95409.84
2023-05-18T18:33:53.569Z,95411.06
2023-05-18T18:37:02.438Z,95408.97
2023-05-18T18:40:12.025Z,95406.44
2023-05-18T18:43:21.959Z,95411.41
2023-05-18T18:46:30.672Z,95406.03
2023-05-18T18:49:39.238Z,95409.00
2023-05-18T18:52:47.781Z,95402.97
2023-05-18T18:55:57.158Z,95406.66
2023-05-18T18:59:07.025Z,95409.78
2023-05-18T19:02:16.280Z,95407.28
2023-05-18T19:05:24.762Z,95427.97
2023-05-18T19:08:33.187Z,95421.38
2023-05-18T19:11:41.389Z,95427.06
2023-05-18T19:14:51.078Z,95423.81
2023-05-18T19:17:59.679Z,95432.41
2023-05-18T19:21:08.049Z,95431.56
2023-05-18T19:24:16.288Z,95435.44
2023-05-18T19:27:24.581Z,95433.81
2023-05-18T19:30:34.416Z,95440.16
2023-05-18T19:33:42.844Z,95448.75
2023-05-18T19:36:51.656Z,95448.84
2023-05-18T19:40:00.589Z,95448.50
2023-05-18T19:43:09.754Z,95448.13
2023-05-18T19:46:20.897Z,95462.81
2023-05-18T19:49:29.764Z,95467.25
2023-05-18T19:52:38.190Z,95457.25
2023-05-18T19:55:47.547Z,95458.78
2023-05-18T19:58:57.792Z,95458.47
2023-05-18T20:02:07.446Z,95463.44
2023-05-18T20:05:18.195Z,95461.50
2023-05-18T20:08:27.737Z,95457.28
2023-05-18T20:11:36.046Z,95462.25
2023-05-18T20:14:45.794Z,95458.94
2023-05-18T20:17:55.691Z,95463.44
2023-05-18T20:21:04.598Z,95466.16
2023-05-18T20:24:13.246Z,95460.41
2023-05-18T20:27:21.587Z,95465.72
2023-05-18T20:30:30.749Z,95466.56
2023-05-18T20:33:42.778Z,95468.22
2023-05-18T20:36:51.574Z,95471.06
2023-05-18T20:40:01.655Z,95473.44
2023-05-18T20:43:11.523Z,95465.94
2023-05-18T20:46:23.805Z,95464.28
2023-05-18T20:49:33.811Z,95466.03
2023-05-18T20:52:41.988Z,95463.63
2023-05-18T20:55:54.192Z,95460.53
2023-05-18T20:59:04.193Z,95461.06
2023-05-18T21:02:13.870Z,95471.06
2023-05-18T21:05:24.373Z,95458.78
2023-05-18T21:08:32.807Z,95452.16
2023-05-18T21:11:41.773Z,95456.94
2023-05-18T21:14:50.099Z,95452.63
2023-05-18T21:17:58.397Z,95458.13
2023-05-18T21:21:08.189Z,95452.69
2023-05-18T21:24:16.386Z,95447.03
2023-05-18T21:27:24.775Z,95451.53
2023-05-18T21:30:33.386Z,95454.34
2023-05-18T21:33:41.911Z,95450.69
2023-05-18T21:36:51.938Z,95450.69
2023-05-18T21:40:00.157Z,95449.44
2023-05-18T21:43:08.604Z,95442.53
2023-05-18T21:46:17.062Z,95448.50
2023-05-18T21:49:25.539Z,95450.13
2023-05-18T21:52:35.433Z,95437.88
2023-05-18T21:55:43.763Z,95430.16
2023-05-18T21:58:52.032Z,95433.56
2023-05-18T22:02:00.777Z,95439.50
2023-05-18T22:05:10.164Z,95438.41
2023-05-18T22:08:20.096Z,95430.44
2023-05-18T22:11:28.379Z,95425.59
2023-05-18T22:14:36.880Z,95424.59
2023-05-18T22:17:46.185Z,95422.28
2023-05-18T22:20:54.976Z,95424.59
2023-05-18T22:24:04.823Z,95422.44
2023-05-18T22:27:13.137Z,95422.63
2023-05-18T22:30:23.739Z,95412.38
2023-05-18T22:33:31.977Z,95418.31
2023-05-18T22:36:40.182Z,95409.44
2023-05-18T22:39:49.725Z,95403.00
2023-05-18T22:42:58.185Z,95412.53
2023-05-18T22:46:06.770Z,95406.84
2023-05-18T22:49:15.119Z,95402.75
2023-05-18T22:52:23.549Z,95403.28
2023-05-18T22:55:33.715Z,95406.22
2023-05-18T22:58:42.614Z,95405.59
2023-05-18T23:01:54.689Z,95409.97
2023-05-18T23:05:05.565Z,95405.34
2023-05-18T23:08:14.435Z,95402.81
2023-05-18T23:11:26.102Z,95395.69
2023-05-18T23:14:34.356Z,95399.22
2023-05-18T23:17:42.601Z,95397.69
2023-05-18T23:20:55.502Z,95406.19
2023-05-18T23:24:04.583Z,95391.81
2023-05-18T23:27:14.114Z,95392.16
2023-05-18T23:30:22.547Z,95389.16
2023-05-18T23:33:31.662Z,95398.22
2023-05-18T23:36:42.608Z,95382.47
2023-05-18T23:39:52.915Z,95383.00
2023-05-18T23:43:03.449Z,95388.88
2023-05-18T23:46:13.236Z,95388.50
2023-05-18T23:49:22.304Z,95392.63
2023-05-18T23:52:33.769Z,95388.50
2023-05-18T23:55:43.348Z,95389.03
2023-05-18T23:58:53.854Z,95391.59
